createdAt,value
2019-05-26T00:00:48.853Z,99.90
2019-05-26T00:03:17.490Z,99.90
2019-05-26T00:05:46.483Z,99.90
2019-05-26T00:08:15.050Z,99.90
2019-05-26T00:10:43.707Z,99.90
2019-05-26T00:13:12.305Z,99.90
2019-05-26T00:15:40.935Z,99.90
2019-05-26T00:18:09.923Z,99.90
2019-05-26T00:20:38.508Z,99.90
2019-05-26T00:23:07.109Z,99.90
2019-05-26T00:25:35.749Z,99.90
2019-05-26T00:28:04.520Z,99.90
2019-05-26T00:30:33.095Z,99.90
2019-05-26T00:33:01.698Z,99.90
2019-05-26T00:35:30.283Z,99.90
2019-05-26T00:37:58.873Z,99.90
2019-05-26T00:40:27.591Z,99.90
2019-05-26T00:42:56.184Z,99.90
2019-05-26T00:45:25.611Z,99.90
2019-05-26T00:47:54.201Z,99.90
2019-05-26T00:50:22.914Z,99.90
2019-05-26T00:52:51.570Z,99.90
2019-05-26T00:55:20.881Z,99.90
2019-05-26T00:57:49.713Z,99.90
2019-05-26T01:00:21.361Z,99.90
2019-05-26T01:02:50.009Z,99.90
2019-05-26T01:05:18.653Z,99.90
2019-05-26T01:07:47.252Z,99.90
2019-05-26T01:10:15.986Z,99.90
2019-05-26T01:12:44.554Z,99.90
2019-05-26T01:15:13.310Z,99.90
2019-05-26T01:17:41.892Z,99.90
2019-05-26T01:20:11.015Z,99.90
2019-05-26T01:22:39.660Z,99.90
2019-05-26T01:25:08.883Z,99.90
2019-05-26T01:27:37.519Z,99.90
2019-05-26T01:30:08.398Z,99.90
2019-05-26T01:32:37.040Z,99.90
2019-05-26T01:35:08.823Z,99.90
2019-05-26T01:37:38.827Z,99.90
2019-05-26T01:40:08.554Z,99.90
2019-05-26T01:42:37.263Z,99.90
2019-05-26T01:45:06.694Z,99.90
2019-05-26T01:47:35.554Z,99.90
2019-05-26T01:50:07.031Z,99.90
2019-05-26T01:52:35.689Z,99.90
2019-05-26T01:55:06.218Z,99.90
2019-05-26T01:57:34.799Z,99.90
2019-05-26T02:00:06.131Z,99.90
2019-05-26T02:02:34.519Z,99.90
2019-05-26T02:05:03.758Z,99.90
2019-05-26T02:07:32.605Z,99.90
2019-05-26T02:10:01.186Z,99.90
2019-05-26T02:12:29.767Z,99.90
2019-05-26T02:14:58.341Z,99.90
2019-05-26T02:17:27.001Z,99.90
2019-05-26T02:19:55.914Z,99.90
2019-05-26T02:22:24.494Z,99.90
2019-05-26T02:24:53.381Z,99.90
2019-05-26T02:27:21.969Z,99.90
2019-05-26T02:29:50.536Z,99.90
2019-05-26T02:32:19.147Z,99.90
2019-05-26T02:34:47.727Z,99.90
2019-05-26T02:37:16.449Z,99.90
2019-05-26T02:39:45.287Z,99.90
2019-05-26T02:42:14.023Z,99.90
2019-05-26T02:44:42.596Z,99.90
2019-05-26T02:47:11.326Z,99.90
2019-05-26T02:49:39.870Z,99.90
2019-05-26T02:52:08.528Z,99.90
2019-05-26T02:54:37.365Z,99.90
2019-05-26T02:57:06.120Z,99.90
2019-05-26T02:59:34.761Z,99.90
2019-05-26T03:02:04.745Z,99.90
2019-05-26T03:04:33.684Z,99.90
2019-05-26T03:07:03.308Z,99.90
2019-05-26T03:09:34.320Z,99.90
2019-05-26T03:12:04.026Z,99.90
2019-05-26T03:14:34.621Z,99.90
2019-05-26T03:17:03.423Z,99.90
2019-05-26T03:19:34.479Z,99.90
2019-05-26T03:22:03.998Z,99.90
2019-05-26T03:24:33.430Z,99.90
2019-05-26T03:27:02.361Z,99.90
2019-05-26T03:29:30.945Z,99.90
2019-05-26T03:31:59.595Z,99.90
2019-05-26T03:34:28.149Z,99.90
2019-05-26T03:36:56.737Z,99.90
2019-05-26T03:39:42.358Z,99.90
2019-05-26T03:41:55.570Z,99.90
2019-05-26T03:44:24.412Z,99.90
2019-05-26T03:46:53.021Z,99.90
2019-05-26T03:49:21.616Z,99.90
2019-05-26T03:51:50.290Z,99.90
2019-05-26T03:54:18.840Z,99.90
2019-05-26T03:56:47.491Z,99.90
2019-05-26T03:59:16.047Z,99.90
2019-05-26T04:01:44.700Z,99.90
2019-05-26T04:04:13.297Z,99.90
2019-05-26T04:06:42.058Z,99.90
2019-05-26T04:09:10.617Z,99.90
2019-05-26T04:11:39.228Z,99.90
2019-05-26T04:14:08.150Z,99.90
2019-05-26T04:16:36.807Z,99.90
2019-05-26T04:19:05.455Z,99.90
2019-05-26T04:21:34.207Z,99.90
2019-05-26T04:24:03.110Z,99.90
2019-05-26T04:26:31.712Z,99.90
2019-05-26T04:29:00.332Z,99.90
2019-05-26T04:31:28.928Z,99.90
2019-05-26T04:33:57.879Z,99.90
2019-05-26T04:36:26.478Z,99.90
2019-05-26T04:38:55.463Z,99.90
2019-05-26T04:41:24.050Z,99.90
2019-05-26T04:43:52.619Z,99.90
2019-05-26T04:46:21.221Z,99.90
2019-05-26T04:48:49.802Z,99.90
2019-05-26T04:51:18.398Z,99.90
2019-05-26T04:53:46.965Z,99.90
2019-05-26T04:56:15.546Z,99.90
2019-05-26T04:58:44.126Z,99.90
2019-05-26T05:01:12.713Z,99.90
2019-05-26T05:03:41.730Z,99.90
2019-05-26T05:06:10.381Z,99.90
2019-05-26T05:08:38.999Z,99.90
2019-05-26T05:11:07.639Z,99.90
2019-05-26T05:13:36.215Z,99.90
2019-05-26T05:16:04.857Z,99.90
2019-05-26T05:18:33.539Z,99.90
2019-05-26T05:21:02.106Z,99.90
2019-05-26T05:23:30.718Z,99.90
2019-05-26T05:25:59.284Z,99.90
2019-05-26T05:28:27.868Z,99.90
2019-05-26T05:30:56.446Z,99.90
2019-05-26T05:33:25.002Z,99.90
2019-05-26T05:35:53.612Z,99.90
2019-05-26T05:38:22.252Z,99.90
2019-05-26T05:40:59.639Z,99.90
2019-05-26T05:43:21.475Z,99.90
2019-05-26T05:45:50.068Z,99.90
2019-05-26T05:48:18.652Z,99.90
2019-05-26T05:50:47.200Z,99.90
2019-05-26T05:53:15.823Z,99.90
2019-05-26T05:55:44.399Z,99.90
2019-05-26T05:58:12.994Z,99.90
2019-05-26T06:00:42.017Z,99.90
2019-05-26T06:03:10.608Z,99.90
2019-05-26T06:05:39.520Z,99.90
2019-05-26T06:08:08.157Z,99.90
2019-05-26T06:10:36.791Z,99.90
2019-05-26T06:13:05.431Z,99.90
2019-05-26T06:15:34.383Z,99.90
2019-05-26T06:18:03.495Z,99.90
2019-05-26T06:20:32.174Z,99.90
2019-05-26T06:23:00.760Z,99.90
2019-05-26T06:25:29.441Z,99.90
2019-05-26T06:27:58.021Z,99.90
2019-05-26T06:30:26.957Z,99.90
2019-05-26T06:32:55.523Z,99.90
2019-05-26T06:35:24.515Z,99.90
2019-05-26T06:37:53.611Z,99.90
2019-05-26T06:40:22.333Z,99.90
2019-05-26T06:42:50.982Z,99.90
2019-05-26T06:45:20.803Z,99.90
2019-05-26T06:47:49.360Z,99.90
2019-05-26T06:50:18.124Z,99.90
2019-05-26T06:52:46.699Z,99.90
2019-05-26T06:55:15.397Z,99.90
2019-05-26T06:57:44.382Z,99.90
2019-05-26T07:00:13.197Z,99.90
2019-05-26T07:02:41.809Z,99.90
2019-05-26T07:05:12.012Z,99.90
2019-05-26T07:07:40.630Z,99.90
2019-05-26T07:10:09.340Z,99.90
2019-05-26T07:12:38.223Z,99.90
2019-05-26T07:15:08.763Z,99.90
2019-05-26T07:17:37.512Z,99.90
2019-05-26T07:20:07.020Z,99.90
2019-05-26T07:22:36.062Z,99.90
2019-05-26T07:25:08.072Z,99.90
2019-05-26T07:27:36.721Z,99.90
2019-05-26T07:30:10.012Z,99.90
2019-05-26T07:32:38.826Z,99.90
2019-05-26T07:35:08.044Z,99.90
2019-05-26T07:37:37.018Z,99.90
2019-05-26T07:40:06.064Z,99.90
2019-05-26T07:42:35.513Z,99.90
2019-05-26T07:45:08.297Z,99.90
2019-05-26T07:47:36.862Z,99.90
2019-05-26T07:50:07.116Z,99.90
2019-05-26T07:52:35.974Z,99.90
2019-05-26T07:55:06.452Z,99.90
2019-05-26T07:57:35.166Z,99.90
2019-05-26T08:00:06.393Z,99.90
2019-05-26T08:02:35.001Z,99.90
2019-05-26T08:05:05.792Z,99.90
2019-05-26T08:07:34.448Z,99.60
2019-05-26T08:10:04.568Z,99.40
2019-05-26T08:12:33.204Z,99.30
2019-05-26T08:15:01.868Z,98.90
2019-05-26T08:17:30.447Z,97.30
2019-05-26T08:19:59.030Z,97.50
2019-05-26T08:22:27.651Z,96.80
2019-05-26T08:24:56.289Z,96.30
2019-05-26T08:27:25.249Z,96.40
2019-05-26T08:29:54.150Z,95.70
2019-05-26T08:32:22.709Z,94.70
2019-05-26T08:34:52.076Z,94.50
2019-05-26T08:37:20.943Z,94.90
2019-05-26T08:39:49.714Z,94.70
2019-05-26T08:42:27.051Z,93.80
2019-05-26T08:44:49.496Z,93.70
2019-05-26T08:47:18.036Z,94.00
2019-05-26T08:49:46.681Z,93.10
2019-05-26T08:52:15.339Z,92.40
2019-05-26T08:54:43.923Z,92.40
2019-05-26T08:57:12.481Z,92.60
2019-05-26T08:59:41.073Z,92.50
2019-05-26T09:02:09.716Z,92.40
2019-05-26T09:04:38.328Z,91.90
2019-05-26T09:07:06.946Z,92.50
2019-05-26T09:09:35.571Z,91.90
2019-05-26T09:12:04.287Z,90.90
2019-05-26T09:14:32.938Z,91.70
2019-05-26T09:17:01.497Z,91.50
2019-05-26T09:19:30.125Z,91.50
2019-05-26T09:21:58.885Z,91.80
2019-05-26T09:24:27.559Z,91.90
2019-05-26T09:26:56.222Z,91.30
2019-05-26T09:29:24.814Z,91.40
2019-05-26T09:31:53.458Z,91.80
2019-05-26T09:34:22.035Z,91.90
2019-05-26T09:36:50.610Z,91.70
2019-05-26T09:39:19.178Z,91.70
2019-05-26T09:41:47.804Z,91.40
2019-05-26T09:44:16.359Z,91.80
2019-05-26T09:46:44.993Z,91.00
2019-05-26T09:49:13.609Z,91.40
2019-05-26T09:51:42.243Z,91.30
2019-05-26T09:54:12.763Z,91.80
2019-05-26T09:56:41.373Z,92.40
2019-05-26T09:59:10.042Z,92.00
2019-05-26T10:01:38.608Z,92.10
2019-05-26T10:04:07.335Z,92.60
2019-05-26T10:06:36.074Z,92.80
2019-05-26T10:09:07.294Z,92.60
2019-05-26T10:11:35.923Z,92.40
2019-05-26T10:14:04.643Z,92.80
2019-05-26T10:16:33.262Z,92.70
2019-05-26T10:19:01.918Z,92.90
2019-05-26T10:21:30.485Z,92.10
2019-05-26T10:23:59.084Z,91.60
2019-05-26T10:26:28.004Z,92.10
2019-05-26T10:29:00.215Z,91.70
2019-05-26T10:31:26.800Z,92.00
2019-05-26T10:33:55.384Z,91.40
2019-05-26T10:36:24.417Z,91.70
2019-05-26T10:38:53.039Z,90.80
2019-05-26T10:41:21.616Z,91.00
2019-05-26T10:43:50.205Z,90.40
2019-05-26T10:46:18.821Z,90.10
2019-05-26T10:48:47.383Z,89.60
2019-05-26T10:51:16.138Z,88.90
2019-05-26T10:53:45.032Z,89.40
2019-05-26T10:56:13.942Z,88.80
2019-05-26T10:58:42.586Z,88.80
2019-05-26T11:01:11.389Z,87.10
2019-05-26T11:03:40.429Z,86.40
2019-05-26T11:06:09.057Z,87.80
2019-05-26T11:08:37.627Z,85.90
2019-05-26T11:11:06.291Z,84.90
2019-05-26T11:13:34.883Z,84.70
2019-05-26T11:16:03.917Z,83.60
2019-05-26T11:18:32.611Z,85.40
2019-05-26T11:21:01.266Z,85.70
2019-05-26T11:23:29.837Z,86.50
2019-05-26T11:25:58.422Z,86.90
2019-05-26T11:28:27.000Z,87.60
2019-05-26T11:30:55.913Z,87.00
2019-05-26T11:33:24.509Z,87.40
2019-05-26T11:35:53.103Z,88.20
2019-05-26T11:38:21.864Z,87.10
2019-05-26T11:40:50.466Z,86.90
2019-05-26T11:43:19.102Z,87.30
2019-05-26T11:45:47.668Z,87.80
2019-05-26T11:48:16.233Z,87.60
2019-05-26T11:50:44.807Z,87.40
2019-05-26T11:53:13.367Z,88.60
2019-05-26T11:55:42.825Z,88.40
2019-05-26T11:58:11.467Z,87.30
2019-05-26T12:00:40.113Z,84.70
2019-05-26T12:03:08.827Z,83.20
2019-05-26T12:05:37.463Z,84.00
2019-05-26T12:08:06.138Z,84.20
2019-05-26T12:10:34.715Z,84.60
2019-05-26T12:13:03.350Z,84.00
2019-05-26T12:15:31.998Z,82.90
2019-05-26T12:18:00.650Z,82.90
2019-05-26T12:20:29.293Z,83.60
2019-05-26T12:22:57.948Z,83.80
2019-05-26T12:25:26.704Z,84.40
2019-05-26T12:27:55.333Z,84.70
2019-05-26T12:30:24.005Z,85.40
2019-05-26T12:32:52.588Z,85.90
2019-05-26T12:35:21.327Z,86.60
2019-05-26T12:37:49.933Z,87.40
2019-05-26T12:40:19.471Z,88.30
2019-05-26T12:42:48.095Z,89.40
2019-05-26T12:45:18.480Z,89.60
2019-05-26T12:47:47.124Z,89.30
2019-05-26T12:50:16.135Z,89.60
2019-05-26T12:52:44.838Z,89.70
2019-05-26T12:55:13.656Z,90.20
2019-05-26T12:57:42.293Z,90.20
2019-05-26T13:00:11.807Z,90.90
2019-05-26T13:02:40.463Z,91.40
2019-05-26T13:05:10.010Z,91.80
2019-05-26T13:07:38.652Z,92.50
2019-05-26T13:10:08.054Z,92.70
2019-05-26T13:12:36.832Z,93.10
2019-05-26T13:15:10.130Z,93.40
2019-05-26T13:17:38.980Z,93.30
2019-05-26T13:20:09.299Z,93.20
2019-05-26T13:22:38.902Z,93.40
2019-05-26T13:25:09.363Z,92.70
2019-05-26T13:27:38.464Z,92.40
2019-05-26T13:30:18.065Z,92.10
2019-05-26T13:32:46.654Z,92.10
2019-05-26T13:35:15.471Z,91.50
2019-05-26T13:37:44.112Z,91.40
2019-05-26T13:40:13.108Z,91.20
2019-05-26T13:42:42.160Z,90.90
2019-05-26T13:45:21.835Z,90.40
2019-05-26T13:47:42.014Z,88.90
2019-05-26T13:50:11.309Z,88.70
2019-05-26T13:52:39.868Z,88.30
2019-05-26T13:55:12.171Z,87.60
2019-05-26T13:57:40.795Z,88.20
2019-05-26T14:00:11.788Z,89.10
2019-05-26T14:02:40.459Z,88.20
2019-05-26T14:05:09.307Z,88.60
2019-05-26T14:07:37.867Z,89.50
2019-05-26T14:10:07.794Z,88.90
2019-05-26T14:12:36.621Z,88.40
2019-05-26T14:15:07.799Z,86.80
2019-05-26T14:17:38.536Z,86.40
2019-05-26T14:20:08.022Z,84.50
2019-05-26T14:22:36.719Z,82.90
2019-05-26T14:25:07.410Z,82.30
2019-05-26T14:27:36.089Z,82.10
2019-05-26T14:30:06.668Z,81.90
2019-05-26T14:32:35.379Z,82.10
2019-05-26T14:35:06.409Z,80.30
2019-05-26T14:37:35.457Z,79.10
2019-05-26T14:40:07.099Z,79.00
2019-05-26T14:42:35.656Z,79.80
2019-05-26T14:45:06.195Z,80.80
2019-05-26T14:47:34.852Z,80.10
2019-05-26T14:50:05.668Z,77.70
2019-05-26T14:52:36.619Z,77.30
2019-05-26T14:55:05.953Z,77.20
2019-05-26T14:57:34.632Z,78.90
2019-05-26T15:00:04.759Z,80.50
2019-05-26T15:02:33.425Z,80.90
2019-05-26T15:05:02.327Z,77.90
2019-05-26T15:07:31.206Z,76.90
2019-05-26T15:09:59.961Z,75.50
2019-05-26T15:12:28.677Z,73.60
2019-05-26T15:14:57.306Z,71.70
2019-05-26T15:17:26.263Z,71.00
2019-05-26T15:19:54.831Z,66.60
2019-05-26T15:22:23.482Z,62.50
2019-05-26T15:24:52.041Z,58.20
2019-05-26T15:27:20.658Z,57.00
2019-05-26T15:29:49.220Z,54.10
2019-05-26T15:32:18.106Z,51.70
2019-05-26T15:34:46.703Z,52.00
2019-05-26T15:37:15.329Z,53.10
2019-05-26T15:39:43.990Z,54.90
2019-05-26T15:42:12.686Z,55.70
2019-05-26T15:44:41.276Z,56.20
2019-05-26T15:47:09.907Z,54.80
2019-05-26T15:49:38.495Z,52.10
2019-05-26T15:52:07.132Z,48.80
2019-05-26T15:54:35.763Z,48.80
2019-05-26T15:57:04.463Z,49.80
2019-05-26T15:59:33.077Z,51.40
2019-05-26T16:02:01.618Z,51.70
2019-05-26T16:04:30.173Z,49.30
2019-05-26T16:06:58.770Z,48.80
2019-05-26T16:09:27.406Z,48.30
2019-05-26T16:11:56.068Z,46.70
2019-05-26T16:14:24.918Z,44.80
2019-05-26T16:16:53.677Z,43.50
2019-05-26T16:19:22.220Z,43.00
2019-05-26T16:21:50.893Z,43.30
2019-05-26T16:24:19.477Z,41.30
2019-05-26T16:26:48.068Z,42.60
2019-05-26T16:29:16.626Z,42.90
2019-05-26T16:31:45.244Z,43.80
2019-05-26T16:34:13.792Z,42.90
2019-05-26T16:36:42.617Z,44.00
2019-05-26T16:39:11.313Z,44.80
2019-05-26T16:41:39.957Z,47.90
2019-05-26T16:44:08.530Z,51.20
2019-05-26T16:46:37.188Z,53.70
2019-05-26T16:49:05.840Z,55.40
2019-05-26T16:51:34.401Z,55.90
2019-05-26T16:54:03.057Z,54.60
2019-05-26T16:56:31.684Z,53.30
2019-05-26T16:59:00.350Z,53.70
2019-05-26T17:01:28.911Z,54.70
2019-05-26T17:03:57.922Z,57.10
2019-05-26T17:06:26.572Z,59.90
2019-05-26T17:08:55.400Z,65.00
2019-05-26T17:11:23.994Z,68.50
2019-05-26T17:13:52.554Z,70.70
2019-05-26T17:16:21.195Z,74.00
2019-05-26T17:18:49.871Z,77.50
2019-05-26T17:21:18.518Z,81.40
2019-05-26T17:23:47.089Z,84.60
2019-05-26T17:26:15.685Z,87.80
2019-05-26T17:28:44.612Z,90.50
2019-05-26T17:31:13.163Z,92.00
2019-05-26T17:33:41.786Z,93.30
2019-05-26T17:36:10.796Z,94.20
2019-05-26T17:38:39.668Z,95.10
2019-05-26T17:41:08.322Z,96.10
2019-05-26T17:43:37.022Z,97.10
2019-05-26T17:46:05.629Z,97.30
2019-05-26T17:48:34.218Z,97.50
2019-05-26T17:51:02.784Z,97.90
2019-05-26T17:53:31.760Z,98.30
2019-05-26T17:56:00.324Z,98.60
2019-05-26T17:58:28.923Z,98.90
2019-05-26T18:00:57.802Z,99.10
2019-05-26T18:03:26.384Z,99.50
2019-05-26T18:05:55.031Z,99.60
2019-05-26T18:08:23.690Z,99.60
2019-05-26T18:10:52.413Z,99.90
2019-05-26T18:13:21.341Z,99.90
2019-05-26T18:15:50.089Z,99.90
2019-05-26T18:18:18.684Z,99.90
2019-05-26T18:20:47.252Z,99.90
2019-05-26T18:23:15.820Z,99.90
2019-05-26T18:25:44.474Z,99.90
2019-05-26T18:28:13.048Z,99.90
2019-05-26T18:30:41.794Z,99.90
2019-05-26T18:33:10.438Z,99.90
2019-05-26T18:35:39.013Z,99.90
2019-05-26T18:38:07.663Z,99.90
2019-05-26T18:40:36.321Z,99.90
2019-05-26T18:43:04.975Z,99.90
2019-05-26T18:45:33.569Z,99.90
2019-05-26T18:48:03.693Z,99.90
2019-05-26T18:50:32.384Z,99.90
2019-05-26T18:53:01.003Z,99.90
2019-05-26T18:55:29.886Z,99.90
2019-05-26T18:57:58.493Z,99.90
2019-05-26T19:00:30.899Z,99.90
2019-05-26T19:02:57.525Z,99.90
2019-05-26T19:05:33.658Z,99.90
2019-05-26T19:07:56.931Z,99.90
2019-05-26T19:10:25.638Z,99.90
2019-05-26T19:12:54.369Z,99.90
2019-05-26T19:15:23.069Z,99.90
2019-05-26T19:17:51.741Z,99.90
2019-05-26T19:20:20.458Z,99.90
2019-05-26T19:22:49.085Z,99.90
2019-05-26T19:25:17.788Z,99.90
2019-05-26T19:27:46.502Z,99.90
2019-05-26T19:30:15.847Z,99.90
2019-05-26T19:32:44.496Z,99.90
2019-05-26T19:35:13.629Z,99.90
2019-05-26T19:37:43.044Z,99.90
2019-05-26T19:40:12.445Z,99.90
2019-05-26T19:42:41.079Z,99.90
2019-05-26T19:45:09.823Z,99.90
2019-05-26T19:47:38.451Z,99.90
2019-05-26T19:50:07.778Z,99.90
2019-05-26T19:52:36.440Z,99.90
2019-05-26T19:55:08.130Z,99.90
2019-05-26T19:57:36.872Z,99.90
2019-05-26T20:00:13.844Z,99.90
2019-05-26T20:02:42.864Z,99.90
2019-05-26T20:05:12.043Z,99.90
2019-05-26T20:07:40.639Z,99.90
2019-05-26T20:10:10.552Z,99.90
2019-05-26T20:12:39.439Z,99.90
2019-05-26T20:15:09.153Z,99.90
2019-05-26T20:17:38.090Z,99.90
2019-05-26T20:20:09.522Z,99.90
2019-05-26T20:22:38.202Z,99.90
2019-05-26T20:25:10.479Z,99.90
2019-05-26T20:27:39.138Z,99.90
2019-05-26T20:30:08.676Z,99.90
2019-05-26T20:32:37.309Z,99.90
2019-05-26T20:35:07.554Z,99.90
2019-05-26T20:37:36.408Z,99.90
2019-05-26T20:40:08.986Z,99.90
2019-05-26T20:42:37.641Z,99.90
2019-05-26T20:45:08.122Z,99.90
2019-05-26T20:47:36.839Z,99.90
2019-05-26T20:50:09.420Z,99.90
2019-05-26T20:52:38.470Z,99.90
2019-05-26T20:55:07.801Z,99.90
2019-05-26T20:57:36.438Z,99.90
2019-05-26T21:00:11.349Z,99.90
2019-05-26T21:02:41.056Z,99.90
2019-05-26T21:05:10.818Z,99.90
2019-05-26T21:07:39.914Z,99.90
2019-05-26T21:10:08.744Z,99.90
2019-05-26T21:12:37.406Z,99.90
2019-05-26T21:15:07.866Z,99.90
2019-05-26T21:17:36.422Z,99.90
2019-05-26T21:20:07.118Z,99.90
2019-05-26T21:22:35.773Z,99.90
2019-05-26T21:25:06.913Z,99.90
2019-05-26T21:27:39.531Z,99.90
2019-05-26T21:30:09.303Z,99.90
2019-05-26T21:32:38.110Z,99.90
2019-05-26T21:35:10.067Z,99.90
2019-05-26T21:37:41.746Z,99.90
2019-05-26T21:40:10.968Z,99.90
2019-05-26T21:42:39.824Z,99.90
2019-05-26T21:45:09.861Z,99.90
2019-05-26T21:47:38.704Z,99.90
2019-05-26T21:50:10.952Z,99.90
2019-05-26T21:52:44.678Z,99.90
2019-05-26T21:55:13.832Z,99.90
2019-05-26T21:57:45.435Z,99.90
2019-05-26T22:00:16.375Z,99.90
2019-05-26T22:02:49.701Z,99.90
2019-05-26T22:05:20.032Z,99.90
2019-05-26T22:07:48.646Z,99.90
2019-05-26T22:10:17.379Z,99.90
2019-05-26T22:12:45.958Z,99.90
2019-05-26T22:15:16.154Z,99.90
2019-05-26T22:17:45.078Z,99.90
2019-05-26T22:20:13.814Z,99.90
2019-05-26T22:22:42.403Z,99.90
2019-05-26T22:25:11.594Z,99.90
2019-05-26T22:27:40.317Z,99.90
2019-05-26T22:30:10.548Z,99.90
2019-05-26T22:32:39.140Z,99.90
2019-05-26T22:35:10.815Z,99.90
2019-05-26T22:37:39.504Z,99.90
2019-05-26T22:40:08.824Z,99.90
2019-05-26T22:42:37.427Z,99.90
2019-05-26T22:45:08.249Z,99.90
2019-05-26T22:47:36.910Z,99.90
2019-05-26T22:50:10.094Z,99.90
2019-05-26T22:52:38.770Z,99.90
2019-05-26T22:55:08.484Z,99.90
2019-05-26T22:57:37.343Z,99.90
2019-05-26T23:00:10.644Z,99.90
2019-05-26T23:02:39.635Z,99.90
2019-05-26T23:05:09.134Z,99.90
2019-05-26T23:07:37.740Z,99.90
2019-05-26T23:10:07.532Z,99.90
2019-05-26T23:12:36.201Z,99.90
2019-05-26T23:15:08.850Z,99.90
2019-05-26T23:17:37.915Z,99.90
2019-05-26T23:20:07.433Z,99.90
2019-05-26T23:22:36.413Z,99.90
2019-05-26T23:25:06.244Z,99.90
2019-05-26T23:27:35.175Z,99.90
2019-05-26T23:30:06.658Z,99.90
2019-05-26T23:32:35.683Z,99.90
2019-05-26T23:35:06.589Z,99.90
2019-05-26T23:37:35.187Z,99.90
2019-05-26T23:40:07.434Z,99.90
2019-05-26T23:42:36.162Z,99.90
2019-05-26T23:45:09.009Z,99.90
2019-05-26T23:47:37.550Z,99.90
2019-05-26T23:50:07.771Z,99.90
2019-05-26T23:52:36.751Z,99.90
2019-05-26T23:55:08.929Z,99.90
2019-05-26T23:57:37.513Z,99.90
